sensor_id;sensor_type;location;lat;lon;timestamp;pressure;altitude;pressure_sealevel;temperature;humidity
15529;BME280;7866;52.280;9.500;2023-04-26T00:01:12;100382.28;;;5.32;71.41
15529;BME280;7866;52.280;9.500;2023-04-26T00:06:15;100389.06;;;5.15;72.37
15529;BME280;7866;52.280;9.500;2023-04-26T00:11:16;100389.91;;;5.15;71.48
15529;BME280;7866;52.280;9.500;2023-04-26T00:16:18;100387.94;;;5.17;71.22
15529;BME280;7866;52.280;9.500;2023-04-26T00:21:21;100384.13;;;5.10;70.77
15529;BME280;7866;52.280;9.500;2023-04-26T00:26:23;100380.66;;;5.10;71.98
15529;BME280;7866;52.280;9.500;2023-04-26T00:31:25;100378.63;;;4.92;72.03
15529;BME280;7866;52.280;9.500;2023-04-26T00:36:28;100398.28;;;4.90;72.95
15529;BME280;7866;52.280;9.500;2023-04-26T00:41:31;100390.28;;;4.80;72.55
15529;BME280;7866;52.280;9.500;2023-04-26T00:46:33;100394.09;;;4.87;72.83
15529;BME280;7866;52.280;9.500;2023-04-26T00:51:36;100390.53;;;4.77;72.81
15529;BME280;7866;52.280;9.500;2023-04-26T00:56:38;100390.41;;;4.79;72.83
15529;BME280;7866;52.280;9.500;2023-04-26T01:01:40;100389.44;;;4.80;72.91
15529;BME280;7866;52.280;9.500;2023-04-26T01:06:43;100391.28;;;4.79;72.23
15529;BME280;7866;52.280;9.500;2023-04-26T01:11:45;100393.63;;;4.82;72.26
15529;BME280;7866;52.280;9.500;2023-04-26T01:16:47;100402.47;;;4.83;73.15
15529;BME280;7866;52.280;9.500;2023-04-26T01:21:51;100398.72;;;4.64;73.59
15529;BME280;7866;52.280;9.500;2023-04-26T01:26:54;100397.72;;;4.65;73.96
15529;BME280;7866;52.280;9.500;2023-04-26T01:31:56;100400.44;;;4.54;74.00
15529;BME280;7866;52.280;9.500;2023-04-26T01:36:57;100403.28;;;4.62;73.01
15529;BME280;7866;52.280;9.500;2023-04-26T01:42:01;100395.13;;;4.54;73.69
15529;BME280;7866;52.280;9.500;2023-04-26T01:47:03;100404.78;;;4.55;72.67
15529;BME280;7866;52.280;9.500;2023-04-26T01:52:05;100421.94;;;4.51;73.89
15529;BME280;7866;52.280;9.500;2023-04-26T01:57:08;100413.25;;;4.49;74.27
15529;BME280;7866;52.280;9.500;2023-04-26T02:02:10;100407.50;;;4.44;74.21
15529;BME280;7866;52.280;9.500;2023-04-26T02:07:11;100413.88;;;4.41;74.57
15529;BME280;7866;52.280;9.500;2023-04-26T02:12:14;100413.28;;;4.38;74.44
15529;BME280;7866;52.280;9.500;2023-04-26T02:17:16;100411.16;;;4.32;75.10
15529;BME280;7866;52.280;9.500;2023-04-26T02:22:17;100414.06;;;4.29;74.68
15529;BME280;7866;52.280;9.500;2023-04-26T02:27:21;100407.28;;;4.15;75.72
15529;BME280;7866;52.280;9.500;2023-04-26T02:32:23;100415.53;;;4.22;74.83
15529;BME280;7866;52.280;9.500;2023-04-26T02:37:25;100412.25;;;4.29;74.49
15529;BME280;7866;52.280;9.500;2023-04-26T02:42:28;100414.69;;;4.21;74.20
15529;BME280;7866;52.280;9.500;2023-04-26T02:47:30;100406.28;;;4.16;75.48
15529;BME280;7866;52.280;9.500;2023-04-26T02:52:31;100406.75;;;4.21;76.16
15529;BME280;7866;52.280;9.500;2023-04-26T02:57:34;100397.50;;;4.15;75.69
15529;BME280;7866;52.280;9.500;2023-04-26T03:02:36;100397.63;;;4.14;75.19
15529;BME280;7866;52.280;9.500;2023-04-26T03:07:37;100406.38;;;4.26;75.35
15529;BME280;7866;52.280;9.500;2023-04-26T03:12:40;100400.66;;;4.09;75.39
15529;BME280;7866;52.280;9.500;2023-04-26T03:17:42;100399.94;;;4.07;76.29
15529;BME280;7866;52.280;9.500;2023-04-26T03:22:44;100407.53;;;4.01;76.71
15529;BME280;7866;52.280;9.500;2023-04-26T03:27:47;100405.28;;;3.96;75.63
15529;BME280;7866;52.280;9.500;2023-04-26T03:32:49;100402.94;;;4.03;76.50
15529;BME280;7866;52.280;9.500;2023-04-26T03:37:50;100398.31;;;3.95;76.38
15529;BME280;7866;52.280;9.500;2023-04-26T03:42:53;100398.03;;;3.98;77.15
15529;BME280;7866;52.280;9.500;2023-04-26T03:47:55;100410.44;;;3.98;77.04
15529;BME280;7866;52.280;9.500;2023-04-26T03:52:57;100405.53;;;3.93;76.65
15529;BME280;7866;52.280;9.500;2023-04-26T03:57:59;100405.97;;;3.98;76.38
15529;BME280;7866;52.280;9.500;2023-04-26T04:03:02;100410.22;;;3.89;76.27
15529;BME280;7866;52.280;9.500;2023-04-26T04:08:04;100396.97;;;3.89;76.77
15529;BME280;7866;52.280;9.500;2023-04-26T04:13:07;100401.16;;;4.03;76.70
15529;BME280;7866;52.280;9.500;2023-04-26T04:18:09;100402.69;;;4.06;76.31
15529;BME280;7866;52.280;9.500;2023-04-26T04:23:10;100403.69;;;4.05;76.40
15529;BME280;7866;52.280;9.500;2023-04-26T04:28:13;100409.91;;;4.15;76.52
15529;BME280;7866;52.280;9.500;2023-04-26T04:33:15;100415.53;;;4.22;76.73
15529;BME280;7866;52.280;9.500;2023-04-26T04:38:18;100421.09;;;4.18;76.47
15529;BME280;7866;52.280;9.500;2023-04-26T04:43:21;100420.25;;;4.18;75.91
15529;BME280;7866;52.280;9.500;2023-04-26T04:48:22;100416.66;;;4.19;75.18
15529;BME280;7866;52.280;9.500;2023-04-26T04:53:24;100425.06;;;4.24;75.67
15529;BME280;7866;52.280;9.500;2023-04-26T04:58:27;100435.25;;;4.40;74.92
15529;BME280;7866;52.280;9.500;2023-04-26T05:03:29;100419.41;;;4.70;74.36
15529;BME280;7866;52.280;9.500;2023-04-26T05:08:32;100422.66;;;5.66;71.63
15529;BME280;7866;52.280;9.500;2023-04-26T05:13:37;100433.22;;;5.87;70.78
15529;BME280;7866;52.280;9.500;2023-04-26T05:18:38;100438.34;;;6.48;68.40
15529;BME280;7866;52.280;9.500;2023-04-26T05:23:40;100431.03;;;6.70;67.45
15529;BME280;7866;52.280;9.500;2023-04-26T05:28:43;100444.34;;;6.60;67.15
15529;BME280;7866;52.280;9.500;2023-04-26T05:33:45;100447.34;;;7.13;66.89
15529;BME280;7866;52.280;9.500;2023-04-26T05:38:46;100444.69;;;7.13;66.78
15529;BME280;7866;52.280;9.500;2023-04-26T05:43:49;100441.50;;;7.37;66.52
15529;BME280;7866;52.280;9.500;2023-04-26T05:48:51;100438.09;;;7.55;65.39
15529;BME280;7866;52.280;9.500;2023-04-26T05:53:53;100449.63;;;7.46;65.51
15529;BME280;7866;52.280;9.500;2023-04-26T05:58:56;100456.94;;;7.99;65.35
15529;BME280;7866;52.280;9.500;2023-04-26T06:03:58;100457.19;;;7.50;64.57
15529;BME280;7866;52.280;9.500;2023-04-26T06:09:00;100456.69;;;7.92;64.24
15529;BME280;7866;52.280;9.500;2023-04-26T06:14:03;100456.22;;;8.06;64.14
15529;BME280;7866;52.280;9.500;2023-04-26T06:19:05;100457.13;;;8.33;63.21
15529;BME280;7866;52.280;9.500;2023-04-26T06:24:07;100467.06;;;8.94;63.44
15529;BME280;7866;52.280;9.500;2023-04-26T06:29:10;100471.34;;;8.69;62.33
15529;BME280;7866;52.280;9.500;2023-04-26T06:34:11;100471.19;;;8.71;62.30
15529;BME280;7866;52.280;9.500;2023-04-26T06:39:13;100482.31;;;8.30;63.52
15529;BME280;7866;52.280;9.500;2023-04-26T06:44:16;100478.38;;;8.52;63.33
15529;BME280;7866;52.280;9.500;2023-04-26T06:49:17;100481.69;;;8.19;63.64
15529;BME280;7866;52.280;9.500;2023-04-26T06:54:19;100486.59;;;8.13;64.75
15529;BME280;7866;52.280;9.500;2023-04-26T06:59:22;100486.41;;;7.97;64.29
15529;BME280;7866;52.280;9.500;2023-04-26T07:04:24;100486.91;;;8.10;64.35
15529;BME280;7866;52.280;9.500;2023-04-26T07:09:25;100487.97;;;8.18;61.82
15529;BME280;7866;52.280;9.500;2023-04-26T07:14:28;100494.69;;;8.22;62.75
15529;BME280;7866;52.280;9.500;2023-04-26T07:19:30;100483.97;;;9.03;61.91
15529;BME280;7866;52.280;9.500;2023-04-26T07:24:31;100492.34;;;9.08;61.19
15529;BME280;7866;52.280;9.500;2023-04-26T07:29:34;100496.47;;;8.58;62.85
15529;BME280;7866;52.280;9.500;2023-04-26T07:34:38;100494.19;;;8.89;62.44
15529;BME280;7866;52.280;9.500;2023-04-26T07:39:40;100496.56;;;9.10;61.67
15529;BME280;7866;52.280;9.500;2023-04-26T07:44:43;100490.41;;;9.44;60.47
15529;BME280;7866;52.280;9.500;2023-04-26T07:49:44;100497.81;;;8.80;61.57
15529;BME280;7866;52.280;9.500;2023-04-26T07:54:46;100493.06;;;9.10;60.89
15529;BME280;7866;52.280;9.500;2023-04-26T07:59:49;100505.03;;;9.06;59.82
15529;BME280;7866;52.280;9.500;2023-04-26T08:04:51;100495.66;;;9.88;58.54
15529;BME280;7866;52.280;9.500;2023-04-26T08:09:54;100490.09;;;10.24;56.77
15529;BME280;7866;52.280;9.500;2023-04-26T08:14:58;100496.03;;;9.59;56.99
15529;BME280;7866;52.280;9.500;2023-04-26T08:20:00;100494.81;;;9.53;58.86
15529;BME280;7866;52.280;9.500;2023-04-26T08:25:05;100496.00;;;9.93;56.12
15529;BME280;7866;52.280;9.500;2023-04-26T08:30:08;100499.66;;;9.84;57.79
15529;BME280;7866;52.280;9.500;2023-04-26T08:35:10;100501.81;;;9.80;57.49
15529;BME280;7866;52.280;9.500;2023-04-26T08:40:12;100498.66;;;10.27;57.16
15529;BME280;7866;52.280;9.500;2023-04-26T08:45:15;100507.97;;;9.21;58.30
15529;BME280;7866;52.280;9.500;2023-04-26T08:50:19;100499.66;;;9.50;57.68
15529;BME280;7866;52.280;9.500;2023-04-26T08:55:21;100499.41;;;10.03;56.69
15529;BME280;7866;52.280;9.500;2023-04-26T09:00:25;100501.63;;;10.24;55.37
15529;BME280;7866;52.280;9.500;2023-04-26T09:05:26;100509.59;;;9.40;58.20
15529;BME280;7866;52.280;9.500;2023-04-26T09:10:28;100509.19;;;9.52;57.39
15529;BME280;7866;52.280;9.500;2023-04-26T09:15:32;100494.63;;;10.23;55.22
15529;BME280;7866;52.280;9.500;2023-04-26T09:20:34;100509.22;;;9.86;57.02
15529;BME280;7866;52.280;9.500;2023-04-26T09:25:36;100513.63;;;10.12;56.16
15529;BME280;7866;52.280;9.500;2023-04-26T09:30:40;100511.59;;;9.63;57.34
15529;BME280;7866;52.280;9.500;2023-04-26T09:35:42;100514.25;;;9.63;55.97
15529;BME280;7866;52.280;9.500;2023-04-26T09:40:45;100502.28;;;10.93;54.48
15529;BME280;7866;52.280;9.500;2023-04-26T09:45:49;100512.13;;;10.60;51.80
15529;BME280;7866;52.280;9.500;2023-04-26T09:50:52;100505.94;;;10.59;54.97
15529;BME280;7866;52.280;9.500;2023-04-26T09:55:54;100517.69;;;10.24;54.63
15529;BME280;7866;52.280;9.500;2023-04-26T10:00:57;100513.59;;;10.30;54.61
15529;BME280;7866;52.280;9.500;2023-04-26T10:06:00;100519.81;;;10.04;54.97
15529;BME280;7866;52.280;9.500;2023-04-26T10:11:02;100521.75;;;9.86;54.96
15529;BME280;7866;52.280;9.500;2023-04-26T10:16:07;100519.22;;;9.50;56.56
15529;BME280;7866;52.280;9.500;2023-04-26T10:21:12;100519.94;;;10.37;52.83
15529;BME280;7866;52.280;9.500;2023-04-26T10:26:48;100513.00;;;11.01;48.07
15529;BME280;7866;52.280;9.500;2023-04-26T10:32:09;100512.00;;;11.02;50.23
15529;BME280;7866;52.280;9.500;2023-04-26T10:37:15;100506.97;;;10.99;49.87
15529;BME280;7866;52.280;9.500;2023-04-26T10:42:22;100502.22;;;10.44;50.76
15529;BME280;7866;52.280;9.500;2023-04-26T10:47:30;100496.88;;;10.44;50.39
15529;BME280;7866;52.280;9.500;2023-04-26T10:52:32;100494.25;;;11.09;51.58
15529;BME280;7866;52.280;9.500;2023-04-26T10:57:50;100483.50;;;11.34;47.40
15529;BME280;7866;52.280;9.500;2023-04-26T11:02:56;100492.03;;;11.05;49.37
15529;BME280;7866;52.280;9.500;2023-04-26T11:08:03;100490.69;;;11.09;48.64
15529;BME280;7866;52.280;9.500;2023-04-26T11:13:04;100480.16;;;10.67;50.27
15529;BME280;7866;52.280;9.500;2023-04-26T11:18:07;100484.31;;;11.34;47.27
15529;BME280;7866;52.280;9.500;2023-04-26T11:23:09;100486.53;;;11.87;46.63
15529;BME280;7866;52.280;9.500;2023-04-26T11:28:10;100485.84;;;11.37;47.05
15529;BME280;7866;52.280;9.500;2023-04-26T11:33:17;100479.84;;;10.86;46.46
15529;BME280;7866;52.280;9.500;2023-04-26T11:38:22;100498.94;;;10.75;49.02
15529;BME280;7866;52.280;9.500;2023-04-26T11:43:29;100490.19;;;10.56;48.72
15529;BME280;7866;52.280;9.500;2023-04-26T11:48:33;100490.66;;;10.27;48.44
15529;BME280;7866;52.280;9.500;2023-04-26T11:53:36;100494.03;;;11.35;47.69
15529;BME280;7866;52.280;9.500;2023-04-26T11:58:38;100499.41;;;11.27;46.64
15529;BME280;7866;52.280;9.500;2023-04-26T12:03:41;100491.72;;;11.88;44.86
15529;BME280;7866;52.280;9.500;2023-04-26T12:08:48;100493.63;;;11.63;45.42
15529;BME280;7866;52.280;9.500;2023-04-26T12:13:51;100497.56;;;12.31;46.50
15529;BME280;7866;52.280;9.500;2023-04-26T12:18:55;100496.25;;;12.27;46.30
15529;BME280;7866;52.280;9.500;2023-04-26T12:23:56;100492.94;;;12.71;45.37
15529;BME280;7866;52.280;9.500;2023-04-26T12:28:58;100488.53;;;12.78;45.43
15529;BME280;7866;52.280;9.500;2023-04-26T12:34:01;100495.22;;;11.41;47.04
15529;BME280;7866;52.280;9.500;2023-04-26T12:39:03;100495.84;;;11.43;47.65
15529;BME280;7866;52.280;9.500;2023-04-26T12:44:05;100496.56;;;11.13;48.32
15529;BME280;7866;52.280;9.500;2023-04-26T12:49:08;100494.28;;;11.73;46.76
15529;BME280;7866;52.280;9.500;2023-04-26T12:54:10;100484.59;;;12.66;44.72
15529;BME280;7866;52.280;9.500;2023-04-26T12:59:12;100491.25;;;12.16;43.42
15529;BME280;7866;52.280;9.500;2023-04-26T13:04:15;100481.38;;;12.70;43.19
15529;BME280;7866;52.280;9.500;2023-04-26T13:09:17;100486.09;;;13.88;41.41
15529;BME280;7866;52.280;9.500;2023-04-26T13:14:18;100484.53;;;12.74;39.94
15529;BME280;7866;52.280;9.500;2023-04-26T13:19:24;100492.38;;;12.29;42.78
15529;BME280;7866;52.280;9.500;2023-04-26T13:24:25;100501.09;;;11.12;45.28
15529;BME280;7866;52.280;9.500;2023-04-26T13:29:27;100506.94;;;10.50;49.17
15529;BME280;7866;52.280;9.500;2023-04-26T13:34:30;100496.75;;;10.70;47.90
15529;BME280;7866;52.280;9.500;2023-04-26T13:39:32;100498.22;;;10.56;48.91
15529;BME280;7866;52.280;9.500;2023-04-26T13:44:33;100508.31;;;11.12;48.19
15529;BME280;7866;52.280;9.500;2023-04-26T13:49:37;100506.63;;;11.02;47.34
15529;BME280;7866;52.280;9.500;2023-04-26T13:54:39;100499.09;;;11.14;47.44
15529;BME280;7866;52.280;9.500;2023-04-26T13:59:40;100500.59;;;11.17;46.44
15529;BME280;7866;52.280;9.500;2023-04-26T14:04:44;100498.25;;;11.14;45.17
15529;BME280;7866;52.280;9.500;2023-04-26T14:09:45;100504.94;;;11.26;44.86
15529;BME280;7866;52.280;9.500;2023-04-26T14:14:47;100500.28;;;10.95;46.23
15529;BME280;7866;52.280;9.500;2023-04-26T14:19:50;100504.44;;;11.30;45.58
15529;BME280;7866;52.280;9.500;2023-04-26T14:24:52;100495.22;;;11.17;45.71
15529;BME280;7866;52.280;9.500;2023-04-26T14:29:54;100505.94;;;11.25;44.56
15529;BME280;7866;52.280;9.500;2023-04-26T14:34:57;100511.16;;;11.26;45.14
15529;BME280;7866;52.280;9.500;2023-04-26T14:39:59;100513.66;;;10.95;45.96
15529;BME280;7866;52.280;9.500;2023-04-26T14:45:00;100516.84;;;10.91;45.87
15529;BME280;7866;52.280;9.500;2023-04-26T14:50:04;100513.97;;;10.76;46.78
15529;BME280;7866;52.280;9.500;2023-04-26T14:55:09;100510.97;;;10.54;48.30
15529;BME280;7866;52.280;9.500;2023-04-26T15:00:11;100512.94;;;10.52;48.87
15529;BME280;7866;52.280;9.500;2023-04-26T15:05:17;100523.22;;;10.23;49.07
15529;BME280;7866;52.280;9.500;2023-04-26T15:10:20;100520.69;;;10.21;49.64
15529;BME280;7866;52.280;9.500;2023-04-26T15:15:22;100521.44;;;10.31;48.96
15529;BME280;7866;52.280;9.500;2023-04-26T15:20:25;100520.81;;;10.46;48.93
15529;BME280;7866;52.280;9.500;2023-04-26T15:25:26;100511.91;;;10.37;49.13
15529;BME280;7866;52.280;9.500;2023-04-26T15:30:28;100509.91;;;10.39;49.47
15529;BME280;7866;52.280;9.500;2023-04-26T15:35:32;100515.81;;;10.51;49.27
15529;BME280;7866;52.280;9.500;2023-04-26T15:40:33;100509.19;;;10.29;49.79
15529;BME280;7866;52.280;9.500;2023-04-26T15:45:35;100511.16;;;10.10;49.92
15529;BME280;7866;52.280;9.500;2023-04-26T15:50:38;100524.28;;;9.96;49.86
15529;BME280;7866;52.280;9.500;2023-04-26T15:55:39;100531.13;;;9.90;49.94
15529;BME280;7866;52.280;9.500;2023-04-26T16:00:41;100528.16;;;10.01;49.88
15529;BME280;7866;52.280;9.500;2023-04-26T16:05:44;100537.69;;;10.04;50.16
15529;BME280;7866;52.280;9.500;2023-04-26T16:10:46;100528.81;;;9.95;50.35
15529;BME280;7866;52.280;9.500;2023-04-26T16:15:47;100530.53;;;9.70;51.17
15529;BME280;7866;52.280;9.500;2023-04-26T16:20:50;100535.69;;;9.37;53.21
15529;BME280;7866;52.280;9.500;2023-04-26T16:25:54;100541.38;;;9.43;53.26
15529;BME280;7866;52.280;9.500;2023-04-26T16:30:55;100531.47;;;9.35;53.49
15529;BME280;7866;52.280;9.500;2023-04-26T16:35:58;100532.31;;;9.35;53.68
15529;BME280;7866;52.280;9.500;2023-04-26T16:41:00;100533.66;;;9.40;53.31
15529;BME280;7866;52.280;9.500;2023-04-26T16:46:03;100539.56;;;9.25;53.43
15529;BME280;7866;52.280;9.500;2023-04-26T16:51:06;100542.09;;;9.27;53.48
15529;BME280;7866;52.280;9.500;2023-04-26T16:56:08;100537.75;;;9.26;53.75
15529;BME280;7866;52.280;9.500;2023-04-26T17:01:10;100537.44;;;9.29;54.09
15529;BME280;7866;52.280;9.500;2023-04-26T17:06:13;100536.34;;;9.40;54.05
15529;BME280;7866;52.280;9.500;2023-04-26T17:11:15;100547.16;;;9.30;53.68
15529;BME280;7866;52.280;9.500;2023-04-26T17:16:17;100544.25;;;9.23;53.69
15529;BME280;7866;52.280;9.500;2023-04-26T17:21:20;100541.75;;;9.22;54.54
15529;BME280;7866;52.280;9.500;2023-04-26T17:26:21;100550.13;;;9.27;54.01
15529;BME280;7866;52.280;9.500;2023-04-26T17:31:23;100545.84;;;9.34;53.95
15529;BME280;7866;52.280;9.500;2023-04-26T17:36:26;100557.78;;;9.22;54.04
15529;BME280;7866;52.280;9.500;2023-04-26T17:41:28;100558.31;;;9.07;54.65
15529;BME280;7866;52.280;9.500;2023-04-26T17:46:29;100558.78;;;9.03;55.00
15529;BME280;7866;52.280;9.500;2023-04-26T17:51:32;100562.66;;;9.08;54.76
15529;BME280;7866;52.280;9.500;2023-04-26T17:56:34;100560.97;;;9.07;54.95
15529;BME280;7866;52.280;9.500;2023-04-26T18:01:37;100560.75;;;9.01;55.31
15529;BME280;7866;52.280;9.500;2023-04-26T18:06:40;100569.28;;;9.04;55.27
15529;BME280;7866;52.280;9.500;2023-04-26T18:11:41;100570.44;;;8.84;55.64
15529;BME280;7866;52.280;9.500;2023-04-26T18:16:46;100571.56;;;8.81;56.06
15529;BME280;7866;52.280;9.500;2023-04-26T18:21:49;100565.94;;;8.84;56.24
15529;BME280;7866;52.280;9.500;2023-04-26T18:26:52;100566.88;;;8.75;56.76
15529;BME280;7866;52.280;9.500;2023-04-26T18:31:54;100568.78;;;8.83;56.91
15529;BME280;7866;52.280;9.500;2023-04-26T18:36:57;100573.63;;;8.70;57.37
15529;BME280;7866;52.280;9.500;2023-04-26T18:41:59;100580.97;;;8.68;57.42
15529;BME280;7866;52.280;9.500;2023-04-26T18:47:01;100582.63;;;8.69;57.51
15529;BME280;7866;52.280;9.500;2023-04-26T18:52:04;100580.88;;;8.59;58.37
15529;BME280;7866;52.280;9.500;2023-04-26T18:57:07;100582.19;;;8.55;58.59
15529;BME280;7866;52.280;9.500;2023-04-26T19:02:10;100583.00;;;8.56;58.57
15529;BME280;7866;52.280;9.500;2023-04-26T19:07:14;100592.94;;;8.63;58.20
15529;BME280;7866;52.280;9.500;2023-04-26T19:12:16;100591.81;;;8.66;58.36
15529;BME280;7866;52.280;9.500;2023-04-26T19:17:17;100599.31;;;8.53;58.75
15529;BME280;7866;52.280;9.500;2023-04-26T19:22:20;100609.06;;;8.44;59.52
15529;BME280;7866;52.280;9.500;2023-04-26T19:27:22;100605.09;;;8.48;59.08
15529;BME280;7866;52.280;9.500;2023-04-26T19:32:23;100610.34;;;8.40;59.71
15529;BME280;7866;52.280;9.500;2023-04-26T19:37:27;100611.75;;;8.34;60.04
15529;BME280;7866;52.280;9.500;2023-04-26T19:42:28;100610.34;;;8.40;59.94
15529;BME280;7866;52.280;9.500;2023-04-26T19:47:30;100610.66;;;8.27;60.70
15529;BME280;7866;52.280;9.500;2023-04-26T19:52:33;100623.47;;;8.24;60.87
15529;BME280;7866;52.280;9.500;2023-04-26T19:57:34;100616.44;;;8.23;60.74
15529;BME280;7866;52.280;9.500;2023-04-26T20:02:36;100608.06;;;8.08;61.22
15529;BME280;7866;52.280;9.500;2023-04-26T20:07:39;100630.38;;;8.17;60.76
15529;BME280;7866;52.280;9.500;2023-04-26T20:12:41;100626.56;;;8.19;60.24
15529;BME280;7866;52.280;9.500;2023-04-26T20:17:42;100626.84;;;8.16;60.69
15529;BME280;7866;52.280;9.500;2023-04-26T20:22:45;100625.88;;;8.17;60.51
15529;BME280;7866;52.280;9.500;2023-04-26T20:27:47;100631.75;;;8.21;60.98
15529;BME280;7866;52.280;9.500;2023-04-26T20:32:49;100630.66;;;8.13;61.03
15529;BME280;7866;52.280;9.500;2023-04-26T20:37:52;100619.47;;;8.00;61.40
15529;BME280;7866;52.280;9.500;2023-04-26T20:42:53;100627.47;;;8.00;61.47
15529;BME280;7866;52.280;9.500;2023-04-26T20:47:55;100622.75;;;7.94;62.04
15529;BME280;7866;52.280;9.500;2023-04-26T20:52:58;100620.06;;;7.94;61.44
15529;BME280;7866;52.280;9.500;2023-04-26T20:57:59;100631.69;;;7.93;61.60
15529;BME280;7866;52.280;9.500;2023-04-26T21:03:01;100622.75;;;7.94;61.60
15529;BME280;7866;52.280;9.500;2023-04-26T21:08:04;100634.97;;;7.77;61.77
15529;BME280;7866;52.280;9.500;2023-04-26T21:13:24;100627.97;;;7.76;62.80
15529;BME280;7866;52.280;9.500;2023-04-26T21:18:25;100638.91;;;7.83;62.64
15529;BME280;7866;52.280;9.500;2023-04-26T21:23:29;100641.84;;;7.80;62.81
15529;BME280;7866;52.280;9.500;2023-04-26T21:28:30;100638.34;;;7.79;62.84
15529;BME280;7866;52.280;9.500;2023-04-26T21:33:32;100630.66;;;7.67;62.91
15529;BME280;7866;52.280;9.500;2023-04-26T21:38:36;100635.28;;;7.64;63.01
15529;BME280;7866;52.280;9.500;2023-04-26T21:43:37;100640.63;;;7.64;62.41
15529;BME280;7866;52.280;9.500;2023-04-26T21:48:39;100642.28;;;7.65;62.60
15529;BME280;7866;52.280;9.500;2023-04-26T21:53:42;100641.47;;;7.55;62.53
15529;BME280;7866;52.280;9.500;2023-04-26T21:58:43;100637.41;;;7.41;63.21
15529;BME280;7866;52.280;9.500;2023-04-26T22:03:45;100633.91;;;7.51;63.14
15529;BME280;7866;52.280;9.500;2023-04-26T22:08:48;100638.97;;;7.44;62.96
15529;BME280;7866;52.280;9.500;2023-04-26T22:13:50;100639.50;;;7.38;64.19
15529;BME280;7866;52.280;9.500;2023-04-26T22:18:51;100639.25;;;7.51;64.15
15529;BME280;7866;52.280;9.500;2023-04-26T22:23:54;100639.78;;;7.45;64.06
15529;BME280;7866;52.280;9.500;2023-04-26T22:28:56;100651.03;;;7.38;64.77
15529;BME280;7866;52.280;9.500;2023-04-26T22:33:58;100654.66;;;7.37;64.91
15529;BME280;7866;52.280;9.500;2023-04-26T22:39:00;100651.84;;;7.29;64.85
15529;BME280;7866;52.280;9.500;2023-04-26T22:44:02;100653.53;;;7.40;64.55
15529;BME280;7866;52.280;9.500;2023-04-26T22:49:04;100652.72;;;7.39;64.50
15529;BME280;7866;52.280;9.500;2023-04-26T22:54:07;100651.59;;;7.42;64.35
15529;BME280;7866;52.280;9.500;2023-04-26T22:59:09;100656.94;;;7.42;64.24
15529;BME280;7866;52.280;9.500;2023-04-26T23:04:11;100660.44;;;7.43;64.81
15529;BME280;7866;52.280;9.500;2023-04-26T23:09:14;100657.03;;;7.40;64.37
15529;BME280;7866;52.280;9.500;2023-04-26T23:14:15;100668.25;;;7.25;64.66
15529;BME280;7866;52.280;9.500;2023-04-26T23:19:19;100670.38;;;7.31;64.97
15529;BME280;7866;52.280;9.500;2023-04-26T23:24:22;100672.06;;;7.32;64.81
15529;BME280;7866;52.280;9.500;2023-04-26T23:29:23;100675.72;;;7.31;65.24
15529;BME280;7866;52.280;9.500;2023-04-26T23:34:25;100679.47;;;7.28;65.45
15529;BME280;7866;52.280;9.500;2023-04-26T23:39:28;100681.88;;;7.31;65.15
15529;BME280;7866;52.280;9.500;2023-04-26T23:44:30;100687.91;;;7.24;65.25
15529;BME280;7866;52.280;9.500;2023-04-26T23:49:31;100680.91;;;7.23;65.86
15529;BME280;7866;52.280;9.500;2023-04-26T23:54:34;100684.13;;;7.26;64.98
15529;BME280;7866;52.280;9.500;2023-04-26T23:59:38;100676.81;;;7.19;65.46
